createdAt,value
2023-04-29T00:01:30.788Z,100240.72
2023-04-29T00:06:32.513Z,100235.47
2023-04-29T00:11:35.506Z,100240.81
2023-04-29T00:16:37.833Z,100234.47
2023-04-29T00:21:39.564Z,100237.06
2023-04-29T00:26:42.668Z,100237.19
2023-04-29T00:31:44.577Z,100233.75
2023-04-29T00:36:46.291Z,100240.81
2023-04-29T00:41:49.342Z,100242.53
2023-04-29T00:46:51.036Z,100240.91
2023-04-29T00:51:52.786Z,100244.44
2023-04-29T00:56:55.960Z,100251.56
2023-04-29T01:01:59.334Z,100256.75
2023-04-29T01:07:04.429Z,100256.75
2023-04-29T01:12:13.688Z,100261.50
2023-04-29T01:17:18.335Z,100265.78
2023-04-29T01:22:21.858Z,100261.28
2023-04-29T01:27:29.697Z,100257.66
2023-04-29T01:32:44.032Z,100266.75
2023-04-29T01:37:52.221Z,100280.06
2023-04-29T01:43:00.611Z,100280.19
2023-04-29T01:48:03.010Z,100282.06
2023-04-29T01:53:07.022Z,100289.09
2023-04-29T01:58:10.803Z,100301.91
2023-04-29T02:03:28.923Z,100306.72
2023-04-29T02:08:32.295Z,100315.53
2023-04-29T02:13:37.614Z,100315.84
2023-04-29T02:18:40.606Z,100334.16
2023-04-29T02:23:42.356Z,100344.69
2023-04-29T02:28:45.447Z,100334.38
2023-04-29T02:33:47.212Z,100355.41
2023-04-29T02:38:50.716Z,100354.50
2023-04-29T02:43:53.774Z,100359.44
2023-04-29T02:48:55.565Z,100358.94
2023-04-29T02:54:16.576Z,100363.28
2023-04-29T02:59:19.678Z,100370.16
2023-04-29T03:04:21.543Z,100373.78
2023-04-29T03:09:23.602Z,100363.88
2023-04-29T03:14:26.821Z,100380.94
2023-04-29T03:19:28.559Z,100396.09
2023-04-29T03:24:30.377Z,100398.59
2023-04-29T03:29:33.533Z,100401.97
2023-04-29T03:34:35.457Z,100408.34
2023-04-29T03:39:50.065Z,100406.78
2023-04-29T03:44:53.141Z,100418.19
2023-04-29T03:49:55.166Z,100412.97
2023-04-29T03:54:57.147Z,100426.97
2023-04-29T04:00:00.404Z,100430.50
2023-04-29T04:05:02.505Z,100427.19
2023-04-29T04:10:05.167Z,100449.50
2023-04-29T04:15:09.718Z,100456.38
2023-04-29T04:20:13.199Z,100467.75
2023-04-29T04:25:15.055Z,100472.78
2023-04-29T04:30:18.521Z,100489.63
2023-04-29T04:35:20.624Z,100486.16
2023-04-29T04:40:22.893Z,100506.47
2023-04-29T04:45:46.018Z,100512.47
2023-04-29T04:50:47.926Z,100517.72
2023-04-29T04:55:50.967Z,100523.78
2023-04-29T05:00:55.319Z,100536.88
2023-04-29T05:05:57.426Z,100550.13
2023-04-29T05:10:59.793Z,100550.28
2023-04-29T05:16:06.490Z,100572.25
2023-04-29T05:21:09.542Z,100567.03
2023-04-29T05:26:12.063Z,100573.13
2023-04-29T05:31:15.356Z,100581.81
2023-04-29T05:36:17.293Z,100585.31
2023-04-29T05:41:21.683Z,100594.03
2023-04-29T05:46:51.627Z,100598.44
2023-04-29T05:51:53.926Z,100612.34
2023-04-29T05:56:56.315Z,100621.94
2023-04-29T06:02:00.932Z,100623.66
2023-04-29T06:07:03.314Z,100636.78
2023-04-29T06:12:23.489Z,100653.31
2023-04-29T06:17:29.226Z,100659.44
2023-04-29T06:22:31.174Z,100667.28
2023-04-29T06:27:34.194Z,100678.59
2023-04-29T06:32:37.830Z,100684.75
2023-04-29T06:37:42.141Z,100685.59
2023-04-29T06:43:10.610Z,100693.44
2023-04-29T06:48:32.316Z,100705.56
2023-04-29T06:53:34.130Z,100715.06
2023-04-29T06:58:35.995Z,100724.63
2023-04-29T07:03:39.418Z,100723.50
2023-04-29T07:08:41.172Z,100733.09
2023-04-29T07:13:42.973Z,100747.69
2023-04-29T07:18:45.950Z,100760.72
2023-04-29T07:23:47.982Z,100764.22
2023-04-29T07:28:50.055Z,100775.78
2023-04-29T07:33:53.114Z,100785.41
2023-04-29T07:38:56.420Z,100797.88
2023-04-29T07:43:58.108Z,100801.59
2023-04-29T07:49:01.261Z,100815.56
2023-04-29T07:54:03.022Z,100809.25
2023-04-29T07:59:05.102Z,100823.38
2023-04-29T08:04:08.504Z,100829.09
2023-04-29T08:09:21.189Z,100834.47
2023-04-29T08:14:22.888Z,100829.94
2023-04-29T08:19:25.987Z,100832.91
2023-04-29T08:24:29.601Z,100842.63
2023-04-29T08:29:32.764Z,100854.78
2023-04-29T08:34:36.367Z,100844.63
2023-04-29T08:39:38.025Z,100850.03
2023-04-29T08:44:40.773Z,100868.72
2023-04-29T08:49:43.823Z,100883.38
2023-04-29T08:54:45.536Z,100887.09
2023-04-29T08:59:47.241Z,100891.25
2023-04-29T09:04:53.920Z,100901.19
2023-04-29T09:09:55.973Z,100895.78
2023-04-29T09:14:59.540Z,100894.44
2023-04-29T09:20:02.982Z,100909.09
2023-04-29T09:25:14.030Z,100904.31
2023-04-29T09:30:16.766Z,100895.63
2023-04-29T09:35:26.407Z,100904.59
2023-04-29T09:40:30.630Z,100902.38
2023-04-29T09:45:35.704Z,100914.03
2023-04-29T09:50:39.257Z,100913.13
2023-04-29T09:55:58.791Z,100928.75
2023-04-29T10:01:01.554Z,100923.72
2023-04-29T10:06:06.114Z,100912.31
2023-04-29T10:11:07.821Z,100915.59
2023-04-29T10:16:13.778Z,100924.91
2023-04-29T10:21:16.868Z,100939.38
2023-04-29T10:26:18.732Z,100931.69
2023-04-29T10:31:21.669Z,100941.34
2023-04-29T10:36:25.856Z,100935.09
2023-04-29T10:41:29.888Z,100940.75
2023-04-29T10:46:31.617Z,100941.00
2023-04-29T10:51:35.353Z,100942.19
2023-04-29T10:56:38.347Z,100934.50
2023-04-29T11:01:42.250Z,100937.00
2023-04-29T11:06:51.969Z,100949.81
2023-04-29T11:12:01.567Z,100951.84
2023-04-29T11:17:04.448Z,100966.69
2023-04-29T11:22:12.705Z,100960.28
2023-04-29T11:27:14.417Z,100957.47
2023-04-29T11:32:16.171Z,100959.69
2023-04-29T11:37:23.380Z,100969.63
2023-04-29T11:42:25.063Z,100962.97
2023-04-29T11:47:28.150Z,100955.03
2023-04-29T11:52:31.270Z,100965.56
2023-04-29T11:57:32.979Z,100968.13
2023-04-29T12:02:34.871Z,100963.63
2023-04-29T12:07:38.714Z,100967.09
2023-04-29T12:12:42.314Z,100970.97
2023-04-29T12:17:44.193Z,100979.28
2023-04-29T12:22:47.281Z,100972.28
2023-04-29T12:27:48.978Z,100978.34
2023-04-29T12:32:51.838Z,100988.59
2023-04-29T12:37:54.855Z,100990.91
2023-04-29T12:42:56.553Z,100991.78
2023-04-29T12:47:58.423Z,100991.06
2023-04-29T12:53:01.926Z,100990.88
2023-04-29T12:58:03.804Z,100985.75
2023-04-29T13:03:05.761Z,101003.69
2023-04-29T13:08:08.989Z,101003.28
2023-04-29T13:13:10.678Z,100997.03
2023-04-29T13:18:12.557Z,100998.03
2023-04-29T13:23:15.689Z,101001.41
2023-04-29T13:28:17.594Z,101010.25
2023-04-29T13:33:19.655Z,101004.34
2023-04-29T13:38:23.070Z,101009.56
2023-04-29T13:43:36.783Z,101013.19
2023-04-29T13:59:36.261Z,101022.06
2023-04-29T14:04:15.410Z,101030.16
2023-04-29T14:09:19.967Z,101029.22
2023-04-29T14:14:21.711Z,101039.63
2023-04-29T14:19:23.383Z,101041.84
2023-04-29T14:24:28.719Z,101037.84
2023-04-29T14:29:30.531Z,101043.06
2023-04-29T14:34:32.212Z,101055.16
2023-04-29T14:39:35.331Z,101070.34
2023-04-29T14:44:37.030Z,101078.34
2023-04-29T14:49:38.811Z,101073.59
2023-04-29T14:54:41.853Z,101081.44
2023-04-29T14:59:44.415Z,101085.75
2023-04-29T15:04:46.365Z,101084.41
2023-04-29T15:09:50.553Z,101081.56
2023-04-29T15:14:53.470Z,101086.53
2023-04-29T15:19:55.355Z,101079.44
2023-04-29T15:24:58.436Z,101086.63
2023-04-29T15:30:00.167Z,101094.84
2023-04-29T15:35:02.248Z,101094.72
2023-04-29T15:40:06.732Z,101105.19
2023-04-29T15:45:09.547Z,101110.00
2023-04-29T15:50:11.422Z,101112.31
2023-04-29T15:55:16.618Z,101110.78
2023-04-29T16:00:19.056Z,101118.16
2023-04-29T16:05:20.986Z,101121.56
2023-04-29T16:10:24.373Z,101119.78
2023-04-29T16:15:26.072Z,101134.09
2023-04-29T16:20:27.847Z,101131.69
2023-04-29T16:25:30.937Z,101131.78
2023-04-29T16:30:32.644Z,101133.63
2023-04-29T16:35:34.470Z,101142.69
2023-04-29T16:40:37.493Z,101151.84
2023-04-29T16:45:39.166Z,101137.72
2023-04-29T16:50:40.884Z,101141.63
2023-04-29T16:55:43.890Z,101132.34
2023-04-29T17:00:45.729Z,101145.50
2023-04-29T17:05:48.598Z,101137.81
2023-04-29T17:10:51.625Z,101148.44
2023-04-29T17:15:53.449Z,101155.91
2023-04-29T17:20:55.526Z,101161.44
2023-04-29T17:25:58.593Z,101168.69
2023-04-29T17:31:01.325Z,101175.06
2023-04-29T17:36:03.716Z,101182.22
2023-04-29T17:41:06.827Z,101182.44
2023-04-29T17:46:08.529Z,101192.16
2023-04-29T17:51:10.248Z,101194.13
2023-04-29T17:56:13.484Z,101201.19
2023-04-29T18:01:15.300Z,101215.38
2023-04-29T18:06:17.462Z,101222.47
2023-04-29T18:11:21.040Z,101220.81
2023-04-29T18:16:22.852Z,101227.06
2023-04-29T18:21:24.696Z,101234.13
2023-04-29T18:26:28.575Z,101241.22
2023-04-29T18:31:30.382Z,101242.16
2023-04-29T18:36:32.954Z,101246.56
2023-04-29T18:41:36.155Z,101251.81
2023-04-29T18:46:37.978Z,101259.72
2023-04-29T18:51:40.391Z,101278.09
2023-04-29T18:56:44.691Z,101265.84
2023-04-29T19:01:46.553Z,101273.69
2023-04-29T19:06:48.264Z,101290.34
2023-04-29T19:11:51.292Z,101300.84
2023-04-29T19:16:54.742Z,101308.72
2023-04-29T19:21:56.545Z,101313.03
2023-04-29T19:26:59.556Z,101315.66
2023-04-29T19:32:01.522Z,101321.72
2023-04-29T19:37:03.240Z,101333.03
2023-04-29T19:42:06.260Z,101331.28
2023-04-29T19:47:07.992Z,101343.50
2023-04-29T19:52:09.706Z,101351.31
2023-04-29T19:57:12.768Z,101359.06
2023-04-29T20:02:14.498Z,101361.63
2023-04-29T20:07:16.227Z,101365.94
2023-04-29T20:12:19.239Z,101374.50
2023-04-29T20:17:21.016Z,101380.56
2023-04-29T20:22:22.943Z,101397.16
2023-04-29T20:27:26.244Z,101395.25
2023-04-29T20:32:28.004Z,101404.66
2023-04-29T20:37:29.833Z,101410.56
2023-04-29T20:42:32.891Z,101410.56
2023-04-29T20:47:35.448Z,101417.31
2023-04-29T20:52:37.987Z,101428.59
2023-04-29T20:57:41.065Z,101433.72
2023-04-29T21:02:42.800Z,101432.72
2023-04-29T21:07:44.511Z,101432.72
2023-04-29T21:12:47.554Z,101441.47
2023-04-29T21:17:49.334Z,101448.38
2023-04-29T21:22:51.313Z,101457.88
2023-04-29T21:27:54.343Z,101454.34
2023-04-29T21:32:56.319Z,101459.50
2023-04-29T21:37:58.138Z,101465.41
2023-04-29T21:43:01.165Z,101466.97
2023-04-29T21:48:05.912Z,101478.22
2023-04-29T21:53:07.652Z,101483.34
2023-04-29T21:58:11.513Z,101488.59
2023-04-29T22:03:13.402Z,101490.28
2023-04-29T22:08:15.144Z,101494.41
2023-04-29T22:13:18.190Z,101496.91
2023-04-29T22:18:19.946Z,101501.94
2023-04-29T22:23:22.661Z,101507.66
2023-04-29T22:28:25.712Z,101510.88
2023-04-29T22:33:27.529Z,101517.75
2023-04-29T22:38:29.499Z,101513.28
2023-04-29T22:43:32.529Z,101519.34
2023-04-29T22:48:34.300Z,101522.56
2023-04-29T22:53:35.985Z,101525.88
2023-04-29T22:58:39.504Z,101530.84
2023-04-29T23:03:41.190Z,101529.00
2023-04-29T23:08:44.490Z,101539.28
2023-04-29T23:13:47.574Z,101535.47
2023-04-29T23:18:49.316Z,101550.53
2023-04-29T23:23:51.020Z,101545.06
2023-04-29T23:28:54.069Z,101560.47
2023-04-29T23:33:55.835Z,101555.63
2023-04-29T23:38:57.549Z,101554.25
2023-04-29T23:44:02.324Z,101554.81
2023-04-29T23:49:04.065Z,101553.56
2023-04-29T23:54:05.803Z,101563.03
2023-04-29T23:59:08.869Z,101569.94
